createdAt,value
2023-04-07T00:02:22.817Z,118.60
2023-04-07T00:04:52.304Z,116.23
2023-04-07T00:07:20.703Z,114.20
2023-04-07T00:09:49.265Z,114.47
2023-04-07T00:12:17.593Z,115.20
2023-04-07T00:14:47.241Z,117.10
2023-04-07T00:17:15.801Z,115.43
2023-04-07T00:19:44.473Z,118.40
2023-04-07T00:22:12.790Z,118.43
2023-04-07T00:24:41.364Z,117.73
2023-04-07T00:27:10.873Z,121.37
2023-04-07T00:29:39.192Z,120.03
2023-04-07T00:32:10.396Z,120.03
2023-04-07T00:34:38.834Z,121.67
2023-04-07T00:37:07.281Z,121.57
2023-04-07T00:39:35.719Z,121.07
2023-04-07T00:42:05.600Z,122.47
2023-04-07T00:44:34.156Z,119.30
2023-04-07T00:47:03.086Z,117.33
2023-04-07T00:49:33.205Z,115.63
2023-04-07T00:52:02.285Z,116.97
2023-04-07T00:54:32.003Z,118.73
2023-04-07T00:57:01.759Z,119.40
2023-04-07T00:59:31.523Z,118.93
2023-04-07T01:02:07.286Z,114.70
2023-04-07T01:04:44.567Z,112.77
2023-04-07T01:07:19.378Z,111.80
2023-04-07T01:09:53.004Z,110.60
2023-04-07T01:12:30.084Z,110.83
2023-04-07T01:15:02.126Z,109.87
2023-04-07T01:17:31.662Z,109.67
2023-04-07T01:20:05.500Z,109.00
2023-04-07T01:22:39.210Z,111.50
2023-04-07T01:25:39.811Z,113.47
2023-04-07T01:28:24.332Z,111.53
2023-04-07T01:30:58.168Z,111.53
2023-04-07T01:33:28.547Z,112.43
2023-04-07T01:35:59.615Z,110.67
2023-04-07T01:38:29.494Z,111.03
2023-04-07T01:40:59.972Z,110.73
2023-04-07T01:43:29.624Z,112.40
2023-04-07T01:46:00.113Z,110.43
2023-04-07T01:48:28.796Z,109.97
2023-04-07T01:50:58.074Z,108.40
2023-04-07T01:53:27.461Z,107.60
2023-04-07T01:55:56.623Z,108.43
2023-04-07T01:58:26.022Z,109.63
2023-04-07T02:00:54.518Z,110.10
2023-04-07T02:03:27.758Z,108.20
2023-04-07T02:05:58.908Z,106.90
2023-04-07T02:08:31.145Z,109.57
2023-04-07T02:11:03.915Z,108.93
2023-04-07T02:13:33.952Z,109.20
2023-04-07T02:16:03.732Z,107.43
2023-04-07T02:18:34.191Z,106.60
2023-04-07T02:21:03.596Z,106.90
2023-04-07T02:23:32.151Z,107.97
2023-04-07T02:26:00.595Z,109.40
2023-04-07T02:28:28.914Z,109.83
2023-04-07T02:30:57.357Z,107.90
2023-04-07T02:33:25.915Z,108.07
2023-04-07T02:35:55.673Z,108.10
2023-04-07T02:38:24.121Z,109.70
2023-04-07T02:40:52.558Z,109.37
2023-04-07T02:43:22.438Z,107.30
2023-04-07T02:45:50.793Z,107.90
2023-04-07T02:48:19.564Z,106.23
2023-04-07T02:50:47.759Z,104.93
2023-04-07T02:53:17.544Z,104.83
2023-04-07T02:55:47.416Z,106.13
2023-04-07T02:58:15.723Z,106.23
2023-04-07T03:00:44.045Z,107.33
2023-04-07T03:03:12.695Z,107.33
2023-04-07T03:05:41.280Z,108.23
2023-04-07T03:08:10.496Z,104.70
2023-04-07T03:10:42.139Z,104.37
2023-04-07T03:13:10.683Z,104.10
2023-04-07T03:15:39.010Z,103.77
2023-04-07T03:18:07.600Z,105.73
2023-04-07T03:20:36.008Z,103.57
2023-04-07T03:23:04.448Z,106.27
2023-04-07T03:25:32.894Z,110.37
2023-04-07T03:28:02.654Z,110.30
2023-04-07T03:30:31.121Z,112.00
2023-04-07T03:32:59.689Z,108.23
2023-04-07T03:35:27.974Z,104.27
2023-04-07T03:37:56.568Z,102.73
2023-04-07T03:40:24.980Z,103.03
2023-04-07T03:42:53.420Z,104.00
2023-04-07T03:45:23.176Z,104.33
2023-04-07T03:47:51.778Z,105.30
2023-04-07T03:50:20.314Z,103.40
2023-04-07T03:52:48.861Z,106.23
2023-04-07T03:55:17.427Z,105.60
2023-04-07T03:57:45.863Z,104.43
2023-04-07T04:00:15.387Z,104.83
2023-04-07T04:02:45.427Z,103.80
2023-04-07T04:05:13.946Z,102.00
2023-04-07T04:07:42.519Z,102.83
2023-04-07T04:10:11.545Z,102.07
2023-04-07T04:12:41.677Z,102.90
2023-04-07T04:15:11.427Z,105.30
2023-04-07T04:17:39.806Z,105.47
2023-04-07T04:20:10.948Z,103.07
2023-04-07T04:22:39.514Z,102.63
2023-04-07T04:25:08.318Z,106.90
2023-04-07T04:27:37.023Z,105.17
2023-04-07T04:30:08.210Z,111.93
2023-04-07T04:32:37.041Z,104.33
2023-04-07T04:35:06.396Z,103.63
2023-04-07T04:37:36.158Z,105.60
2023-04-07T04:40:08.579Z,102.33
2023-04-07T04:42:37.362Z,102.90
2023-04-07T04:45:06.770Z,101.90
2023-04-07T04:47:35.481Z,101.37
2023-04-07T04:50:03.927Z,104.20
2023-04-07T04:52:32.561Z,105.03
2023-04-07T04:55:02.456Z,107.33
2023-04-07T04:57:31.128Z,108.13
2023-04-07T04:59:59.448Z,107.03
2023-04-07T05:02:28.249Z,106.13
2023-04-07T05:04:56.777Z,102.60
2023-04-07T05:07:25.500Z,108.87
2023-04-07T05:09:55.128Z,109.73
2023-04-07T05:12:24.776Z,118.67
2023-04-07T05:14:53.210Z,120.50
2023-04-07T05:17:21.747Z,116.87
2023-04-07T05:19:50.355Z,116.67
2023-04-07T05:22:18.773Z,116.60
2023-04-07T05:24:47.339Z,114.00
2023-04-07T05:27:16.017Z,111.43
2023-04-07T05:29:45.892Z,115.03
2023-04-07T05:32:14.350Z,113.43
2023-04-07T05:34:42.695Z,110.83
2023-04-07T05:37:11.219Z,113.50
2023-04-07T05:39:39.678Z,110.57
2023-04-07T05:42:08.098Z,115.50
2023-04-07T05:44:36.545Z,111.33
2023-04-07T05:47:09.248Z,111.60
2023-04-07T05:49:37.760Z,116.95
2023-04-07T05:52:07.277Z,112.40
2023-04-07T05:54:36.302Z,109.87
2023-04-07T05:57:04.994Z,106.73
2023-04-07T05:59:33.669Z,100.50
2023-04-07T06:02:02.230Z,96.33
2023-04-07T06:04:33.068Z,94.80
2023-04-07T06:07:02.706Z,96.40
2023-04-07T06:09:31.510Z,93.37
2023-04-07T06:12:01.394Z,93.60
2023-04-07T06:14:29.712Z,92.63
2023-04-07T06:16:58.102Z,89.47
2023-04-07T06:19:27.600Z,90.83
2023-04-07T06:21:57.445Z,88.60
2023-04-07T06:24:26.135Z,85.83
2023-04-07T06:26:56.353Z,86.83
2023-04-07T06:29:24.798Z,84.40
2023-04-07T06:31:53.475Z,85.60
2023-04-07T06:34:21.919Z,86.60
2023-04-07T06:36:50.682Z,83.80
2023-04-07T06:39:20.496Z,86.23
2023-04-07T06:41:51.198Z,84.90
2023-04-07T06:44:19.644Z,84.03
2023-04-07T06:46:50.507Z,82.90
2023-04-07T06:49:18.799Z,87.30
2023-04-07T06:51:47.385Z,84.00
2023-04-07T06:54:18.684Z,85.87
2023-04-07T06:56:48.328Z,82.40
2023-04-07T06:59:17.365Z,81.07
2023-04-07T07:01:46.600Z,81.47
2023-04-07T07:04:15.822Z,81.40
2023-04-07T07:06:44.370Z,83.73
2023-04-07T07:09:12.691Z,80.80
2023-04-07T07:11:41.390Z,81.57
2023-04-07T07:14:11.383Z,82.77
2023-04-07T07:16:39.814Z,81.63
2023-04-07T07:19:08.256Z,79.17
2023-04-07T07:21:37.056Z,77.60
2023-04-07T07:24:05.749Z,74.50
2023-04-07T07:26:34.419Z,74.43
2023-04-07T07:29:02.982Z,74.00
2023-04-07T07:31:32.938Z,74.60
2023-04-07T07:34:01.421Z,74.70
2023-04-07T07:36:29.984Z,76.27
2023-04-07T07:38:58.546Z,73.20
2023-04-07T07:41:27.354Z,76.13
2023-04-07T07:43:56.021Z,70.63
2023-04-07T07:46:26.349Z,68.77
2023-04-07T07:48:56.386Z,66.77
2023-04-07T07:51:24.823Z,67.10
2023-04-07T07:53:53.163Z,67.07
2023-04-07T07:56:21.710Z,65.77
2023-04-07T07:58:50.026Z,66.13
2023-04-07T08:01:18.477Z,69.27
2023-04-07T08:03:47.429Z,68.10
2023-04-07T08:06:18.712Z,72.20
2023-04-07T08:08:48.132Z,68.13
2023-04-07T08:11:17.221Z,64.57
2023-04-07T08:13:46.944Z,61.93
2023-04-07T08:16:16.485Z,55.67
2023-04-07T08:18:46.322Z,54.70
2023-04-07T08:21:15.117Z,54.67
2023-04-07T08:23:44.896Z,51.33
2023-04-07T08:26:13.672Z,49.87
2023-04-07T08:28:42.268Z,51.20
2023-04-07T08:31:11.332Z,49.67
2023-04-07T08:33:39.998Z,55.38
2023-04-07T08:36:08.900Z,52.80
2023-04-07T08:38:37.450Z,49.17
2023-04-07T08:41:11.929Z,47.70
2023-04-07T08:43:41.415Z,46.03
2023-04-07T08:46:12.143Z,46.17
2023-04-07T08:48:42.754Z,44.93
2023-04-07T08:51:15.611Z,44.77
2023-04-07T08:53:52.717Z,43.33
2023-04-07T08:56:23.296Z,43.70
2023-04-07T08:58:53.652Z,41.47
2023-04-07T09:01:22.851Z,39.37
2023-04-07T09:03:52.145Z,38.60
2023-04-07T09:06:21.737Z,37.53
2023-04-07T09:08:50.649Z,37.43
2023-04-07T09:11:19.254Z,36.93
2023-04-07T09:13:50.786Z,36.93
2023-04-07T09:16:20.202Z,35.60
2023-04-07T09:18:49.126Z,34.97
2023-04-07T09:21:17.768Z,35.17
2023-04-07T09:23:46.901Z,34.93
2023-04-07T09:26:24.756Z,33.93
2023-04-07T09:28:57.038Z,34.50
2023-04-07T09:31:44.567Z,34.60
2023-04-07T09:34:25.820Z,33.27
2023-04-07T09:36:54.504Z,32.63
2023-04-07T09:39:23.410Z,32.23
2023-04-07T09:41:52.228Z,31.80
2023-04-07T09:44:23.127Z,32.13
2023-04-07T09:46:52.710Z,30.90
2023-04-07T09:49:21.504Z,30.70
2023-04-07T09:51:57.911Z,30.27
2023-04-07T09:54:37.623Z,29.90
2023-04-07T09:57:07.717Z,29.00
2023-04-07T09:59:39.159Z,28.73
2023-04-07T10:02:09.395Z,28.33
2023-04-07T10:04:40.274Z,28.90
2023-04-07T10:07:09.035Z,28.87
2023-04-07T10:09:37.708Z,29.03
2023-04-07T10:12:07.845Z,28.67
2023-04-07T10:14:39.812Z,30.30
2023-04-07T10:17:09.875Z,32.20
2023-04-07T10:19:39.153Z,29.33
2023-04-07T10:22:08.073Z,29.63
2023-04-07T10:24:48.418Z,29.23
2023-04-07T10:27:22.494Z,29.23
2023-04-07T10:29:54.396Z,28.23
2023-04-07T10:32:23.124Z,28.80
2023-04-07T10:34:58.997Z,29.27
2023-04-07T10:37:28.612Z,30.63
2023-04-07T10:40:31.843Z,30.43
2023-04-07T10:43:01.564Z,30.13
2023-04-07T10:45:56.644Z,31.37
2023-04-07T10:48:26.095Z,33.50
2023-04-07T10:51:19.252Z,30.43
2023-04-07T10:54:22.760Z,30.13
2023-04-07T10:57:18.644Z,30.70
2023-04-07T11:00:18.776Z,29.83
2023-04-07T11:02:48.876Z,28.87
2023-04-07T11:05:24.940Z,28.83
2023-04-07T11:07:59.835Z,29.13
2023-04-07T11:10:29.140Z,28.80
2023-04-07T11:13:03.358Z,29.83
2023-04-07T11:15:34.325Z,29.50
2023-04-07T11:18:13.212Z,30.77
2023-04-07T11:20:47.868Z,31.93
2023-04-07T11:23:18.571Z,31.43
2023-04-07T11:25:50.219Z,30.20
2023-04-07T11:28:19.287Z,29.40
2023-04-07T11:30:51.973Z,29.37
2023-04-07T11:33:24.201Z,29.10
2023-04-07T11:35:55.852Z,28.57
2023-04-07T11:38:26.354Z,28.73
2023-04-07T11:40:55.495Z,28.77
2023-04-07T11:43:26.594Z,44.97
2023-04-07T11:46:10.849Z,29.17
2023-04-07T11:48:42.443Z,28.87
2023-04-07T11:51:18.451Z,29.17
2023-04-07T11:53:48.515Z,29.33
2023-04-07T11:56:19.107Z,29.37
2023-04-07T11:58:51.804Z,29.17
2023-04-07T12:01:22.294Z,29.67
2023-04-07T12:04:02.370Z,29.10
2023-04-07T12:06:34.676Z,28.93
2023-04-07T12:09:03.909Z,23.07
2023-04-07T12:11:32.978Z,22.67
2023-04-07T12:14:02.233Z,21.90
2023-04-07T12:16:30.842Z,21.53
2023-04-07T12:19:00.551Z,21.13
2023-04-07T12:21:29.003Z,20.60
2023-04-07T12:23:57.454Z,21.30
2023-04-07T12:26:26.597Z,21.53
2023-04-07T12:28:55.172Z,23.50
2023-04-07T12:31:23.493Z,21.30
2023-04-07T12:33:52.882Z,23.70
2023-04-07T12:36:22.996Z,20.90
2023-04-07T12:38:51.438Z,20.33
2023-04-07T12:41:19.640Z,21.00
2023-04-07T12:43:48.494Z,20.47
2023-04-07T12:46:17.531Z,20.20
2023-04-07T12:48:45.944Z,20.37
2023-04-07T12:51:14.126Z,20.50
2023-04-07T12:53:43.768Z,20.60
2023-04-07T12:56:13.311Z,21.70
2023-04-07T12:58:41.844Z,20.77
2023-04-07T13:01:10.252Z,21.03
2023-04-07T13:03:38.912Z,20.60
2023-04-07T13:06:07.798Z,20.20
2023-04-07T13:08:36.447Z,21.70
2023-04-07T13:11:06.565Z,19.73
2023-04-07T13:13:35.618Z,20.17
2023-04-07T13:16:04.444Z,20.10
2023-04-07T13:18:33.093Z,20.23
2023-04-07T13:23:42.254Z,20.80
2023-04-07T13:26:13.565Z,29.77
2023-04-07T13:28:42.931Z,21.17
2023-04-07T13:31:15.818Z,20.93
2023-04-07T13:33:54.699Z,21.00
2023-04-07T13:36:28.578Z,21.77
2023-04-07T13:38:57.600Z,21.53
2023-04-07T13:41:27.821Z,20.53
2023-04-07T13:43:56.746Z,21.20
2023-04-07T13:46:28.906Z,21.07
2023-04-07T13:48:57.821Z,21.40
2023-04-07T13:51:26.621Z,20.87
2023-04-07T13:53:55.347Z,20.97
2023-04-07T13:56:25.557Z,21.37
2023-04-07T13:58:56.146Z,20.90
2023-04-07T14:01:25.960Z,20.80
2023-04-07T14:03:54.774Z,22.10
2023-04-07T14:06:23.884Z,21.30
2023-04-07T14:08:52.794Z,21.80
2023-04-07T14:11:22.307Z,21.70
2023-04-07T14:13:51.600Z,22.10
2023-04-07T14:16:21.976Z,21.87
2023-04-07T14:18:51.707Z,21.60
2023-04-07T14:21:20.164Z,21.23
2023-04-07T14:23:48.725Z,20.40
2023-04-07T14:26:17.269Z,20.53
2023-04-07T14:28:46.073Z,19.97
2023-04-07T14:31:15.907Z,20.47
2023-04-07T14:33:46.833Z,20.60
2023-04-07T14:36:16.903Z,21.93
2023-04-07T14:38:45.594Z,21.43
2023-04-07T14:41:14.046Z,21.60
2023-04-07T14:43:42.716Z,20.90
2023-04-07T14:46:12.380Z,20.67
2023-04-07T14:48:41.158Z,21.40
2023-04-07T14:51:14.646Z,21.33
2023-04-07T14:53:43.717Z,20.70
2023-04-07T14:56:12.144Z,20.47
2023-04-07T14:58:40.832Z,20.33
2023-04-07T15:01:09.497Z,20.33
2023-04-07T15:03:38.121Z,20.17
2023-04-07T15:06:10.226Z,20.23
2023-04-07T15:08:40.470Z,20.20
2023-04-07T15:11:09.373Z,21.23
2023-04-07T15:13:38.061Z,20.63
2023-04-07T15:16:11.135Z,21.70
2023-04-07T15:18:40.819Z,21.40
2023-04-07T15:21:09.750Z,21.57
2023-04-07T15:23:41.813Z,21.87
2023-04-07T15:26:11.413Z,22.83
2023-04-07T15:28:40.344Z,21.60
2023-04-07T15:31:10.168Z,21.17
2023-04-07T15:33:39.983Z,21.30
2023-04-07T15:36:09.621Z,21.60
2023-04-07T15:38:40.533Z,21.60
2023-04-07T15:41:08.901Z,21.47
2023-04-07T15:43:38.055Z,22.23
2023-04-07T15:46:06.637Z,21.57
2023-04-07T15:48:35.072Z,21.50
2023-04-07T15:51:03.263Z,21.30
2023-04-07T15:53:31.826Z,20.87
2023-04-07T15:56:01.591Z,20.83
2023-04-07T15:58:30.142Z,22.73
2023-04-07T16:00:58.871Z,21.37
2023-04-07T16:03:29.078Z,22.50
2023-04-07T16:05:57.635Z,24.87
2023-04-07T16:08:26.424Z,22.47
2023-04-07T16:10:54.748Z,23.23
2023-04-07T16:13:24.631Z,23.60
2023-04-07T16:15:57.059Z,23.97
2023-04-07T16:18:25.485Z,26.00
2023-04-07T16:20:54.046Z,25.13
2023-04-07T16:23:22.615Z,24.80
2023-04-07T16:25:51.268Z,26.50
2023-04-07T16:28:19.838Z,28.03
2023-04-07T16:30:49.597Z,28.43
2023-04-07T16:33:18.034Z,31.50
2023-04-07T16:35:46.635Z,32.50
2023-04-07T16:38:15.161Z,32.23
2023-04-07T16:41:00.597Z,35.70
2023-04-07T16:43:32.205Z,37.30
2023-04-07T16:46:02.008Z,38.00
2023-04-07T16:48:31.488Z,38.30
2023-04-07T16:50:59.812Z,39.47
2023-04-07T16:53:28.365Z,42.20
2023-04-07T16:55:57.048Z,39.57
2023-04-07T16:58:26.034Z,40.77
2023-04-07T17:00:54.406Z,42.17
2023-04-07T17:03:24.409Z,47.42
2023-04-07T17:05:52.970Z,49.23
2023-04-07T17:08:21.525Z,48.80
2023-04-07T17:10:49.846Z,49.37
2023-04-07T17:13:18.286Z,50.77
2023-04-07T17:15:46.765Z,51.10
2023-04-07T17:18:15.217Z,49.20
2023-04-07T17:20:45.171Z,50.83
2023-04-07T17:23:14.337Z,51.40
2023-04-07T17:25:42.771Z,51.37
2023-04-07T17:28:11.347Z,52.10
2023-04-07T17:30:40.010Z,52.30
2023-04-07T17:33:08.863Z,56.43
2023-04-07T17:35:37.426Z,55.10
2023-04-07T17:38:07.428Z,56.27
2023-04-07T17:40:35.811Z,54.70
2023-04-07T17:43:04.865Z,55.07
2023-04-07T17:45:33.323Z,54.03
2023-04-07T17:48:03.765Z,54.27
2023-04-07T17:50:32.775Z,54.77
2023-04-07T17:53:01.506Z,55.53
2023-04-07T17:55:31.391Z,56.43
2023-04-07T17:58:01.163Z,57.67
2023-04-07T18:00:30.082Z,56.57
2023-04-07T18:02:58.816Z,56.50
2023-04-07T18:05:31.068Z,57.03
2023-04-07T18:07:59.715Z,59.30
2023-04-07T18:10:28.265Z,59.57
2023-04-07T18:12:58.641Z,60.20
2023-04-07T18:15:27.931Z,64.00
2023-04-07T18:17:56.317Z,64.20
2023-04-07T18:20:24.796Z,64.80
2023-04-07T18:22:53.718Z,66.37
2023-04-07T18:25:22.158Z,66.90
2023-04-07T18:27:50.591Z,65.90
2023-04-07T18:30:21.557Z,64.63
2023-04-07T18:32:50.521Z,64.73
2023-04-07T18:35:18.920Z,64.47
2023-04-07T18:37:47.492Z,71.00
2023-04-07T18:40:16.357Z,66.93
2023-04-07T18:42:44.743Z,67.60
2023-04-07T18:45:13.285Z,67.17
2023-04-07T18:47:43.198Z,67.67
2023-04-07T18:50:12.075Z,69.30
2023-04-07T18:52:40.407Z,68.40
2023-04-07T18:55:11.075Z,70.00
2023-04-07T18:57:40.402Z,66.87
2023-04-07T19:00:09.986Z,68.80
2023-04-07T19:02:44.335Z,68.47
2023-04-07T19:05:15.326Z,68.00
2023-04-07T19:07:43.883Z,69.00
2023-04-07T19:10:12.336Z,65.90
2023-04-07T19:12:40.651Z,69.40
2023-04-07T19:15:10.182Z,71.60
2023-04-07T19:17:39.009Z,68.30
2023-04-07T19:20:08.851Z,68.60
2023-04-07T19:22:38.730Z,71.50
2023-04-07T19:25:08.369Z,70.70
2023-04-07T19:27:37.175Z,72.20
2023-04-07T19:30:06.450Z,71.23
2023-04-07T19:32:34.818Z,73.10
2023-04-07T19:35:03.347Z,71.33
2023-04-07T19:37:31.778Z,70.73
2023-04-07T19:40:03.228Z,72.60
2023-04-07T19:42:32.041Z,74.63
2023-04-07T19:45:02.664Z,71.17
2023-04-07T19:47:31.315Z,72.07
2023-04-07T19:50:00.248Z,69.00
2023-04-07T19:52:30.336Z,70.23
2023-04-07T19:54:59.766Z,68.80
2023-04-07T19:57:31.248Z,73.10
2023-04-07T19:59:59.753Z,74.97
2023-04-07T20:02:29.709Z,75.83
2023-04-07T20:04:59.178Z,76.50
2023-04-07T20:07:27.588Z,79.13
2023-04-07T20:09:57.356Z,77.80
2023-04-07T20:12:26.154Z,79.47
2023-04-07T20:14:56.043Z,80.03
2023-04-07T20:17:24.626Z,79.17
2023-04-07T20:19:55.071Z,81.03
2023-04-07T20:22:24.123Z,82.80
2023-04-07T20:24:52.689Z,83.63
2023-04-07T20:27:21.353Z,83.30
2023-04-07T20:29:51.117Z,83.90
2023-04-07T20:32:20.808Z,83.27
2023-04-07T20:34:52.207Z,83.20
2023-04-07T20:37:20.757Z,86.47
2023-04-07T20:39:49.436Z,82.43
2023-04-07T20:42:17.998Z,85.67
2023-04-07T20:44:49.925Z,88.20
2023-04-07T20:47:18.364Z,89.70
2023-04-07T20:49:48.245Z,86.87
2023-04-07T20:52:16.805Z,87.40
2023-04-07T20:54:47.648Z,85.70
2023-04-07T20:57:16.207Z,88.40
2023-04-07T20:59:44.887Z,88.87
2023-04-07T21:02:13.557Z,87.27
2023-04-07T21:04:42.136Z,86.43
2023-04-07T21:07:12.017Z,88.67
2023-04-07T21:09:41.411Z,82.60
2023-04-07T21:12:09.736Z,85.40
2023-04-07T21:14:38.179Z,89.13
2023-04-07T21:17:07.095Z,83.80
2023-04-07T21:19:35.668Z,86.37
2023-04-07T21:22:04.959Z,87.43
2023-04-07T21:24:34.711Z,84.93
2023-04-07T21:27:03.374Z,87.07
2023-04-07T21:29:32.675Z,89.53
2023-04-07T21:32:01.097Z,88.23
2023-04-07T21:34:29.663Z,86.37
2023-04-07T21:36:58.102Z,87.37
2023-04-07T21:39:26.656Z,87.00
2023-04-07T21:41:57.023Z,87.30
2023-04-07T21:44:25.712Z,90.40
2023-04-07T21:46:54.186Z,88.57
2023-04-07T21:49:23.201Z,90.03
2023-04-07T21:51:51.747Z,90.80
2023-04-07T21:54:20.345Z,91.50
2023-04-07T21:56:49.382Z,92.03
2023-04-07T21:59:19.465Z,92.60
2023-04-07T22:01:47.859Z,94.50
2023-04-07T22:04:16.561Z,92.23
2023-04-07T22:06:45.040Z,92.63
2023-04-07T22:09:13.588Z,95.90
2023-04-07T22:11:42.026Z,93.80
2023-04-07T22:14:10.469Z,93.57
2023-04-07T22:16:40.428Z,94.10
2023-04-07T22:19:08.918Z,100.63
2023-04-07T22:21:37.488Z,100.53
2023-04-07T22:24:06.033Z,95.03
2023-04-07T22:26:34.599Z,98.07
2023-04-07T22:29:03.060Z,94.73
2023-04-07T22:31:31.523Z,97.77
2023-04-07T22:34:02.327Z,98.20
2023-04-07T22:36:31.480Z,95.53
2023-04-07T22:38:59.930Z,97.17
2023-04-07T22:41:28.371Z,96.97
2023-04-07T22:43:57.035Z,94.10
2023-04-07T22:46:25.544Z,95.50
2023-04-07T22:48:53.920Z,91.17
2023-04-07T22:51:23.694Z,91.93
2023-04-07T22:53:52.361Z,94.77
2023-04-07T22:56:20.806Z,97.27
2023-04-07T22:58:49.595Z,95.80
2023-04-07T23:01:18.167Z,94.90
2023-04-07T23:03:46.879Z,94.70
2023-04-07T23:06:15.289Z,95.40
2023-04-07T23:08:46.727Z,98.00
2023-04-07T23:11:15.778Z,96.60
2023-04-07T23:13:44.329Z,97.17
2023-04-07T23:16:13.183Z,93.90
2023-04-07T23:18:42.645Z,98.33
2023-04-07T23:21:13.490Z,96.80
2023-04-07T23:23:41.932Z,98.60
2023-04-07T23:26:11.689Z,97.80
2023-04-07T23:28:40.262Z,94.87
2023-04-07T23:31:08.580Z,95.67
2023-04-07T23:33:37.130Z,91.77
2023-04-07T23:36:06.322Z,94.13
2023-04-07T23:38:36.416Z,95.60
2023-04-07T23:41:05.817Z,94.20
2023-04-07T23:43:36.060Z,95.73
2023-04-07T23:46:04.785Z,94.27
2023-04-07T23:48:33.062Z,94.97
2023-04-07T23:51:01.384Z,94.70
2023-04-07T23:53:29.831Z,95.27
2023-04-07T23:55:58.271Z,91.40
2023-04-07T23:58:26.706Z,93.20
